PS80 weather

Robbins Nest Heliport
Quakertown, Pennsylvania, United States

Public forecast

Using degrees Fahrenheit for public forecast. Weather courtesy of forecast.io.

METAR (pilot weather report)

Closest report is Quakertown Airport, 4.0 nm (7.4 km) N. Retrieved 2019/09/15 04:40 UTC (0 seconds ago):

KUKT 150440Z AUTO 00000KT 9SM SCT041 BKN049 19/19 A3018 RMK A01

TAF (pilot weather forecast)

Forecast is more than 12 hours old.

Closest forecast is Lehigh Valley International Airport, 17.1 nm (31.7 km) N. Retrieved 2019/09/14 00:34 UTC (1 day ago):

TAF KABE 142332Z 1500/1524 VRB03KT P6SM -SHRA OVC025 FM150400 VRB02KT 5SM BR VCSH OVC015 FM150600 VRB02KT 4SM BR BKN015 FM151200 34005KT P6SM SCT030 BKN150